Mead, Nebraska
Current Conditions -  °F | °C
As of 5:15 AM on Saturday 25 Oct 2014 (Local Time) from KAHQ Reporting Station
Clear Clear  
Wind Chill: 45°   Ceiling: Unl
Heat Index: 48°   Visibility: 10mi
Dew Point: 43°   Wind: 7mph
Humidity: 83%   Direction: 350°N
Pressure: 30.05"   Gusts: NA
Location:  41.23°N, 96.49°W
Report Text: KAHQ 251015Z AUTO 35006KT 10SM CLR 09/06 A3005 RMK AO2 T00890062
Loading
Personal Weather Stations






























Interactive Weather Map
Tropical Storm Tracking
New forecast layout! Learn more

10-Day Weather Forecast

Advertisements
Track Severe Weather on mobile